Balmedie, United Kingdom
Current Conditions -  °F | °C
As of 1:50 PM on Wednesday 28 Jan 2015 (Local Time) from EGPD Reporting Station
Few Clouds Few Clouds  
Wind Chill: 30°   Ceiling: Unl
Heat Index: 39°   Visibility: 6mi
Dew Point: 28°   Wind: 17mph
Humidity: 65%   Direction: 290°WNW
Pressure: 29"   Gusts: NA
Location:  57.25°N, 2.06°W
Report Text: EGPD 281350Z 29015KT 250V320 9999 FEW035 04/M02 Q0982 NOSIG
Loading
Personal Weather Stations






























Interactive Weather Map New forecast layout! Learn more

10-Day Weather Forecast

Advertisements
Track Severe Weather on mobile